createdAt,value
2018-06-09T00:00:02.272Z,11.95
2018-06-09T00:00:36.074Z,11.07
2018-06-09T00:01:09.124Z,10.68
2018-06-09T00:01:42.172Z,10.32
2018-06-09T00:02:15.240Z,10.00
2018-06-09T00:02:48.271Z,10.27
2018-06-09T00:03:22.085Z,10.90
2018-06-09T00:03:55.120Z,10.40
2018-06-09T00:04:28.923Z,11.20
2018-06-09T00:05:02.740Z,10.68
2018-06-09T00:05:35.772Z,10.63
2018-06-09T00:06:08.823Z,10.02
2018-06-09T00:06:41.868Z,10.75
2018-06-09T00:07:14.940Z,10.95
2018-06-09T00:07:47.984Z,10.40
2018-06-09T00:08:21.784Z,10.80
2018-06-09T00:08:55.581Z,10.15
2018-06-09T00:09:28.616Z,10.68
2018-06-09T00:10:01.681Z,10.45
2018-06-09T00:10:34.737Z,10.25
2018-06-09T00:11:07.759Z,10.00
2018-06-09T00:11:41.560Z,10.68
2018-06-09T00:12:15.356Z,9.27
2018-06-09T00:12:49.482Z,10.27
2018-06-09T00:13:22.528Z,10.80
2018-06-09T00:13:55.569Z,11.32
2018-06-09T00:14:28.621Z,11.38
2018-06-09T00:15:01.658Z,10.80
2018-06-09T00:15:34.692Z,9.55
2018-06-09T00:16:07.751Z,9.80
2018-06-09T00:16:40.795Z,12.45
2018-06-09T00:17:14.092Z,11.05
2018-06-09T00:17:47.143Z,9.90
2018-06-09T00:18:20.255Z,10.00
2018-06-09T00:18:53.291Z,10.85
2018-06-09T00:19:26.312Z,10.63
2018-06-09T00:19:59.352Z,10.70
2018-06-09T00:20:32.378Z,9.82
2018-06-09T00:21:05.422Z,10.85
2018-06-09T00:21:38.451Z,11.02
2018-06-09T00:22:12.255Z,10.90
2018-06-09T00:22:46.071Z,12.35
2018-06-09T00:23:19.106Z,10.57
2018-06-09T00:23:52.131Z,10.60
2018-06-09T00:24:25.180Z,12.88
2018-06-09T00:24:58.988Z,11.18
2018-06-09T00:25:32.037Z,10.93
2018-06-09T00:26:05.076Z,10.20
2018-06-09T00:26:38.103Z,10.88
2018-06-09T00:27:11.140Z,10.63
2018-06-09T00:27:44.194Z,9.95
2018-06-09T00:28:17.237Z,11.18
2018-06-09T00:28:50.299Z,11.18
2018-06-09T00:29:23.328Z,10.50
2018-06-09T00:29:56.366Z,10.00
2018-06-09T00:30:29.408Z,10.45
2018-06-09T00:31:02.473Z,11.00
2018-06-09T00:31:35.507Z,11.12
2018-06-09T00:32:08.548Z,10.85
2018-06-09T00:32:41.589Z,10.50
2018-06-09T00:33:14.645Z,10.40
2018-06-09T00:33:47.799Z,10.82
2018-06-09T00:34:20.834Z,11.07
2018-06-09T00:34:53.959Z,10.88
2018-06-09T00:35:26.991Z,10.70
2018-06-09T00:36:00.020Z,11.02
2018-06-09T00:36:33.052Z,10.80
2018-06-09T00:37:06.084Z,11.15
2018-06-09T00:37:39.118Z,9.98
2018-06-09T00:38:12.176Z,11.50
2018-06-09T00:38:45.216Z,11.32
2018-06-09T00:39:18.249Z,12.80
2018-06-09T00:39:51.289Z,11.00
2018-06-09T00:40:24.328Z,10.90
2018-06-09T00:40:57.364Z,11.00
2018-06-09T00:41:30.432Z,11.30
2018-06-09T00:42:03.464Z,10.90
2018-06-09T00:42:36.499Z,9.30
2018-06-09T00:43:09.549Z,10.77
2018-06-09T00:43:42.593Z,13.50
2018-06-09T00:44:15.624Z,12.68
2018-06-09T00:44:48.651Z,9.82
2018-06-09T00:45:22.450Z,11.50
2018-06-09T00:45:56.253Z,10.13
2018-06-09T00:46:29.299Z,11.35
2018-06-09T00:47:02.347Z,11.38
2018-06-09T00:47:35.383Z,10.95
2018-06-09T00:48:08.588Z,10.63
2018-06-09T00:48:41.612Z,10.98
2018-06-09T00:49:14.645Z,10.63
2018-06-09T00:49:48.444Z,10.55
2018-06-09T00:50:21.485Z,10.52
2018-06-09T00:50:54.523Z,10.55
2018-06-09T00:51:27.560Z,10.55
2018-06-09T00:52:01.372Z,9.80
2018-06-09T00:52:34.416Z,11.18
2018-06-09T00:53:07.463Z,10.95
2018-06-09T00:53:40.507Z,10.38
2018-06-09T00:54:13.548Z,10.23
2018-06-09T00:54:46.588Z,11.32
2018-06-09T00:55:19.685Z,10.00
2018-06-09T00:55:52.868Z,12.13
2018-06-09T00:56:37.820Z,11.43
2018-06-09T00:57:10.851Z,10.85
2018-06-09T00:57:44.655Z,10.43
2018-06-09T00:58:18.482Z,10.63
2018-06-09T00:58:52.270Z,10.30
2018-06-09T00:59:25.308Z,11.30
2018-06-09T00:59:58.336Z,11.40
2018-06-09T01:00:31.412Z,11.30
2018-06-09T01:01:04.452Z,12.32
2018-06-09T01:01:37.483Z,11.25
2018-06-09T01:02:10.545Z,11.18
2018-06-09T01:02:43.572Z,10.98
2018-06-09T01:03:16.620Z,11.68
2018-06-09T01:03:50.435Z,11.70
2018-06-09T01:04:23.485Z,10.82
2018-06-09T01:04:56.614Z,12.02
2018-06-09T01:05:29.699Z,11.48
2018-06-09T01:06:02.757Z,11.38
2018-06-09T01:06:35.793Z,11.43
2018-06-09T01:07:09.583Z,10.90
2018-06-09T01:07:43.399Z,12.88
2018-06-09T01:08:16.436Z,10.88
2018-06-09T01:08:49.484Z,10.48
2018-06-09T01:09:23.280Z,10.75
2018-06-09T01:09:56.321Z,10.32
2018-06-09T01:10:29.343Z,12.70
2018-06-09T01:11:02.377Z,11.20
2018-06-09T01:11:35.424Z,11.55
2018-06-09T01:12:08.560Z,11.68
2018-06-09T01:12:41.616Z,10.93
2018-06-09T01:13:14.664Z,12.07
2018-06-09T01:13:47.892Z,11.43
2018-06-09T01:14:20.912Z,11.10
2018-06-09T01:14:53.964Z,12.35
2018-06-09T01:15:27.771Z,12.55
2018-06-09T01:16:01.587Z,11.98
2018-06-09T01:16:34.615Z,11.40
2018-06-09T01:17:07.663Z,11.75
2018-06-09T01:17:40.698Z,11.38
2018-06-09T01:18:13.756Z,11.60
2018-06-09T01:18:47.583Z,11.23
2018-06-09T01:19:20.637Z,11.48
2018-06-09T01:19:54.468Z,11.80
2018-06-09T01:20:28.280Z,11.02
2018-06-09T01:21:01.333Z,11.27
2018-06-09T01:21:34.385Z,11.00
2018-06-09T01:22:07.424Z,11.93
2018-06-09T01:22:40.482Z,9.88
2018-06-09T01:23:13.525Z,11.38
2018-06-09T01:23:46.585Z,11.75
2018-06-09T01:24:19.619Z,11.30
2018-06-09T01:24:53.459Z,11.35
2018-06-09T01:25:26.491Z,10.82
2018-06-09T01:25:59.550Z,10.80
2018-06-09T01:26:32.621Z,11.07
2018-06-09T01:27:05.659Z,11.55
2018-06-09T01:27:38.701Z,10.98
2018-06-09T01:28:12.509Z,10.98
2018-06-09T01:28:45.570Z,10.85
2018-06-09T01:29:19.360Z,11.60
2018-06-09T01:29:52.482Z,11.90
2018-06-09T01:30:25.517Z,11.60
2018-06-09T01:30:58.562Z,11.55
2018-06-09T01:31:31.596Z,11.38
2018-06-09T01:32:04.667Z,11.57
2018-06-09T01:32:37.716Z,11.75
2018-06-09T01:33:11.523Z,11.95
2018-06-09T01:33:44.572Z,11.07
2018-06-09T01:34:18.399Z,11.90
2018-06-09T01:34:51.430Z,12.32
2018-06-09T01:35:24.469Z,12.80
2018-06-09T01:35:57.500Z,12.40
2018-06-09T01:36:31.302Z,12.32
2018-06-09T01:37:04.336Z,14.90
2018-06-09T01:37:37.375Z,11.52
2018-06-09T01:38:10.420Z,12.48
2018-06-09T01:38:43.450Z,12.37
2018-06-09T01:39:16.524Z,13.02
2018-06-09T01:39:49.544Z,13.95
2018-06-09T01:40:22.820Z,12.90
2018-06-09T01:40:56.663Z,13.45
2018-06-09T01:41:29.701Z,12.70
2018-06-09T01:42:04.316Z,13.20
2018-06-09T01:42:37.367Z,12.52
2018-06-09T01:43:11.178Z,12.98
2018-06-09T01:43:44.224Z,12.98
2018-06-09T01:44:17.268Z,14.95
2018-06-09T01:44:50.302Z,12.20
2018-06-09T01:45:23.343Z,12.70
2018-06-09T01:45:56.385Z,12.50
2018-06-09T01:46:29.411Z,11.38
2018-06-09T01:47:03.213Z,12.30
2018-06-09T01:47:36.252Z,12.35
2018-06-09T01:48:09.312Z,12.07
2018-06-09T01:48:42.344Z,11.82
2018-06-09T01:49:15.408Z,11.95
2018-06-09T01:49:48.443Z,11.93
2018-06-09T01:50:21.485Z,12.10
2018-06-09T01:50:54.527Z,12.07
2018-06-09T01:51:27.557Z,12.55
2018-06-09T01:52:00.600Z,12.07
2018-06-09T01:52:33.635Z,11.30
2018-06-09T01:53:06.769Z,13.15
2018-06-09T01:53:39.817Z,12.57
2018-06-09T01:54:12.863Z,13.30
2018-06-09T01:54:46.672Z,12.15
2018-06-09T01:55:20.479Z,12.63
2018-06-09T01:55:53.517Z,12.15
2018-06-09T01:56:26.556Z,12.88
2018-06-09T01:56:59.600Z,13.02
2018-06-09T01:57:32.628Z,12.20
2018-06-09T01:58:05.664Z,13.15
2018-06-09T01:58:38.711Z,12.00
2018-06-09T01:59:12.525Z,12.20
2018-06-09T01:59:45.569Z,12.30
2018-06-09T02:00:18.689Z,12.40
2018-06-09T02:00:51.720Z,11.93
2018-06-09T02:01:24.857Z,12.37
2018-06-09T02:01:57.904Z,12.25
2018-06-09T02:02:30.944Z,12.37
2018-06-09T02:03:04.740Z,11.05
2018-06-09T02:03:38.564Z,13.18
2018-06-09T02:04:11.604Z,12.85
2018-06-09T02:04:44.659Z,12.02
2018-06-09T02:05:17.701Z,12.07
2018-06-09T02:05:50.741Z,12.20
2018-06-09T02:06:23.787Z,12.00
2018-06-09T02:06:56.839Z,13.02
2018-06-09T02:07:29.856Z,12.18
2018-06-09T02:08:02.905Z,12.57
2018-06-09T02:08:35.960Z,13.60
2018-06-09T02:09:09.033Z,12.45
2018-06-09T02:09:42.074Z,12.40
2018-06-09T02:10:15.110Z,12.20
2018-06-09T02:10:48.159Z,12.93
2018-06-09T02:11:21.217Z,12.15
2018-06-09T02:11:54.275Z,12.68
2018-06-09T02:12:27.309Z,11.93
2018-06-09T02:13:00.352Z,12.25
2018-06-09T02:13:33.400Z,11.63
2018-06-09T02:14:06.449Z,12.82
2018-06-09T02:14:40.271Z,12.80
2018-06-09T02:15:13.308Z,12.75
2018-06-09T02:15:46.359Z,13.00
2018-06-09T02:16:19.383Z,12.20
2018-06-09T02:16:53.180Z,11.98
2018-06-09T02:17:26.220Z,12.50
2018-06-09T02:17:59.264Z,11.73
2018-06-09T02:18:32.295Z,13.00
2018-06-09T02:19:06.103Z,12.60
2018-06-09T02:19:39.147Z,12.37
2018-06-09T02:20:12.189Z,11.70
2018-06-09T02:20:45.981Z,11.85
2018-06-09T02:21:19.014Z,12.10
2018-06-09T02:21:52.051Z,12.30
2018-06-09T02:22:25.196Z,10.82
2018-06-09T02:22:58.231Z,12.05
2018-06-09T02:23:31.291Z,11.38
2018-06-09T02:24:05.092Z,12.13
2018-06-09T02:24:38.994Z,11.68
2018-06-09T02:25:12.816Z,11.52
2018-06-09T02:25:45.912Z,12.27
2018-06-09T02:26:18.943Z,12.13
2018-06-09T02:26:52.856Z,11.82
2018-06-09T02:27:25.879Z,11.40
2018-06-09T02:27:58.920Z,11.73
2018-06-09T02:28:31.963Z,11.38
2018-06-09T02:29:04.999Z,11.65
2018-06-09T02:29:38.043Z,12.00
2018-06-09T02:30:11.080Z,11.75
2018-06-09T02:30:44.955Z,11.40
2018-06-09T02:31:17.990Z,11.90
2018-06-09T02:31:51.059Z,11.10
2018-06-09T02:32:24.095Z,11.60
2018-06-09T02:32:57.131Z,11.82
2018-06-09T02:33:30.187Z,12.30
2018-06-09T02:34:03.224Z,12.52
2018-06-09T02:34:36.270Z,14.18
2018-06-09T02:35:09.320Z,12.82
2018-06-09T02:35:42.365Z,11.63
2018-06-09T02:36:15.406Z,10.93
2018-06-09T02:36:48.437Z,12.27
2018-06-09T02:37:21.486Z,11.63
2018-06-09T02:37:54.513Z,14.05
2018-06-09T02:38:27.559Z,11.38
2018-06-09T02:39:00.584Z,10.77
2018-06-09T02:39:33.644Z,12.52
2018-06-09T02:40:06.695Z,12.15
2018-06-09T02:40:39.852Z,12.20
2018-06-09T02:41:12.890Z,10.57
2018-06-09T02:41:46.011Z,12.00
2018-06-09T02:42:19.032Z,11.75
2018-06-09T02:42:52.082Z,12.50
2018-06-09T02:43:25.116Z,12.68
2018-06-09T02:43:58.154Z,12.27
2018-06-09T02:44:31.228Z,12.65
2018-06-09T02:45:04.265Z,13.48
2018-06-09T02:45:37.312Z,12.23
2018-06-09T02:46:10.348Z,12.10
2018-06-09T02:46:43.386Z,12.82
2018-06-09T02:47:16.421Z,12.00
2018-06-09T02:47:49.480Z,11.70
2018-06-09T02:48:22.507Z,11.73
2018-06-09T02:48:55.540Z,12.90
2018-06-09T02:49:28.616Z,11.48
2018-06-09T02:50:02.399Z,13.15
2018-06-09T02:50:36.208Z,12.37
2018-06-09T02:51:10.015Z,11.57
2018-06-09T02:51:43.045Z,11.80
2018-06-09T02:52:16.097Z,12.00
2018-06-09T02:52:49.904Z,11.98
2018-06-09T02:53:22.935Z,12.65
2018-06-09T02:53:55.969Z,12.10
2018-06-09T02:54:29.037Z,12.10
2018-06-09T02:55:02.840Z,12.63
2018-06-09T02:55:36.657Z,12.73
2018-06-09T02:56:09.699Z,11.65
2018-06-09T02:56:42.753Z,12.98
2018-06-09T02:57:15.799Z,12.25
2018-06-09T02:57:48.981Z,12.07
2018-06-09T02:58:22.022Z,12.55
2018-06-09T02:58:55.056Z,12.85
2018-06-09T02:59:28.117Z,13.30
2018-06-09T03:00:01.182Z,13.60
2018-06-09T03:00:34.216Z,12.27
2018-06-09T03:01:08.012Z,13.35
2018-06-09T03:01:41.819Z,12.80
2018-06-09T03:02:14.871Z,13.52
2018-06-09T03:02:47.905Z,12.93
2018-06-09T03:03:20.957Z,12.95
2018-06-09T03:03:54.000Z,13.18
2018-06-09T03:04:27.060Z,12.68
2018-06-09T03:05:00.337Z,14.18
2018-06-09T03:05:33.389Z,13.07
2018-06-09T03:06:06.436Z,14.13
2018-06-09T03:06:39.484Z,13.62
2018-06-09T03:07:12.526Z,12.98
2018-06-09T03:07:45.565Z,12.57
2018-06-09T03:08:18.609Z,13.77
2018-06-09T03:08:51.644Z,12.63
2018-06-09T03:09:24.691Z,13.95
2018-06-09T03:09:57.744Z,14.60
2018-06-09T03:10:30.780Z,14.73
2018-06-09T03:11:03.831Z,14.13
2018-06-09T03:11:36.868Z,13.45
2018-06-09T03:12:09.900Z,14.43
2018-06-09T03:12:42.932Z,13.65
2018-06-09T03:13:15.971Z,13.70
2018-06-09T03:13:49.089Z,14.15
2018-06-09T03:14:22.137Z,13.60
2018-06-09T03:14:55.182Z,14.77
2018-06-09T03:15:28.232Z,13.48
2018-06-09T03:16:01.270Z,12.85
2018-06-09T03:16:34.303Z,13.60
2018-06-09T03:17:07.351Z,13.32
2018-06-09T03:17:40.373Z,13.73
2018-06-09T03:18:13.419Z,13.93
2018-06-09T03:18:46.469Z,13.40
2018-06-09T03:19:19.502Z,13.18
2018-06-09T03:19:53.328Z,13.95
2018-06-09T03:20:26.383Z,14.18
2018-06-09T03:20:59.432Z,14.63
2018-06-09T03:21:32.469Z,13.07
2018-06-09T03:22:05.507Z,13.68
2018-06-09T03:22:38.548Z,14.02
2018-06-09T03:23:13.095Z,13.90
2018-06-09T03:23:46.127Z,13.88
2018-06-09T03:24:19.175Z,14.45
2018-06-09T03:24:52.214Z,14.02
2018-06-09T03:25:25.268Z,13.35
2018-06-09T03:25:58.305Z,13.98
2018-06-09T03:26:31.344Z,15.00
2018-06-09T03:27:04.383Z,13.60
2018-06-09T03:27:37.420Z,14.87
2018-06-09T03:28:10.454Z,14.13
2018-06-09T03:28:44.262Z,13.27
2018-06-09T03:29:17.293Z,14.65
2018-06-09T03:29:50.336Z,14.15
2018-06-09T03:30:23.384Z,14.23
2018-06-09T03:30:56.433Z,13.95
2018-06-09T03:31:29.459Z,13.38
2018-06-09T03:32:02.511Z,13.50
2018-06-09T03:32:35.570Z,13.23
2018-06-09T03:33:08.907Z,12.88
2018-06-09T03:33:41.946Z,13.95
2018-06-09T03:34:14.991Z,13.98
2018-06-09T03:34:48.806Z,13.68
2018-06-09T03:35:22.629Z,13.60
2018-06-09T03:35:55.669Z,12.93
2018-06-09T03:36:28.712Z,13.52
2018-06-09T03:37:01.744Z,14.77
2018-06-09T03:37:34.771Z,12.32
2018-06-09T03:38:08.584Z,13.50
2018-06-09T03:38:41.618Z,14.13
2018-06-09T03:39:14.664Z,13.85
2018-06-09T03:39:47.700Z,13.07
2018-06-09T03:40:21.553Z,12.80
2018-06-09T03:40:55.352Z,14.18
2018-06-09T03:41:28.401Z,14.25
2018-06-09T03:42:01.440Z,13.00
2018-06-09T03:42:34.482Z,13.70
2018-06-09T03:43:07.542Z,13.07
2018-06-09T03:43:40.564Z,14.73
2018-06-09T03:44:13.604Z,15.15
2018-06-09T03:44:46.650Z,13.65
2018-06-09T03:45:19.696Z,13.50
2018-06-09T03:45:52.764Z,14.32
2018-06-09T03:46:26.590Z,14.35
2018-06-09T03:46:59.620Z,14.85
2018-06-09T03:47:33.428Z,14.30
2018-06-09T03:48:06.536Z,14.87
2018-06-09T03:48:39.597Z,13.70
2018-06-09T03:49:12.640Z,13.80
2018-06-09T03:49:46.445Z,13.55
2018-06-09T03:50:19.482Z,13.95
2018-06-09T03:50:52.544Z,13.48
2018-06-09T03:51:25.608Z,13.60
2018-06-09T03:51:59.082Z,13.85
2018-06-09T03:52:32.370Z,13.48
2018-06-09T03:53:05.427Z,13.48
2018-06-09T03:53:38.723Z,13.18
2018-06-09T03:54:11.776Z,13.60
2018-06-09T03:54:44.830Z,13.32
2018-06-09T03:55:18.631Z,13.82
2018-06-09T03:55:51.692Z,14.02
2018-06-09T03:56:24.821Z,14.43
2018-06-09T03:56:57.870Z,13.85
2018-06-09T03:57:30.904Z,15.45
2018-06-09T03:58:03.988Z,14.82
2018-06-09T03:58:37.037Z,14.40
2018-06-09T03:59:10.080Z,14.98
2018-06-09T03:59:43.129Z,14.35
2018-06-09T04:00:16.173Z,15.90
2018-06-09T04:00:49.235Z,15.32
2018-06-09T04:01:22.288Z,14.82
2018-06-09T04:01:55.334Z,15.38
2018-06-09T04:02:28.379Z,16.25
2018-06-09T04:03:01.405Z,15.38
2018-06-09T04:03:34.445Z,15.48
2018-06-09T04:04:08.248Z,14.85
2018-06-09T04:04:42.049Z,14.32
2018-06-09T04:05:15.083Z,15.77
2018-06-09T04:05:48.139Z,15.65
2018-06-09T04:06:21.179Z,15.23
2018-06-09T04:06:54.220Z,15.65
2018-06-09T04:07:27.254Z,16.33
2018-06-09T04:08:00.293Z,15.88
2018-06-09T04:08:33.335Z,15.38
2018-06-09T04:09:06.492Z,15.93
2018-06-09T04:09:39.539Z,14.98
2018-06-09T04:10:12.586Z,15.27
2018-06-09T04:10:46.404Z,15.93
2018-06-09T04:11:19.449Z,16.87
2018-06-09T04:11:52.485Z,17.02
2018-06-09T04:12:25.524Z,17.42
2018-06-09T04:12:58.584Z,14.70
2018-06-09T04:13:31.628Z,14.75
2018-06-09T04:14:04.690Z,15.73
2018-06-09T04:14:37.719Z,14.93
2018-06-09T04:15:10.756Z,15.40
2018-06-09T04:15:43.802Z,18.65
2018-06-09T04:16:16.844Z,19.35
2018-06-09T04:16:49.887Z,20.25
2018-06-09T04:17:23.683Z,19.40
2018-06-09T04:17:57.484Z,19.67
2018-06-09T04:18:31.284Z,19.08
2018-06-09T04:19:04.354Z,18.60
2018-06-09T04:19:37.391Z,16.50
2018-06-09T04:20:10.439Z,17.23
2018-06-09T04:20:43.541Z,16.95
2018-06-09T04:21:16.590Z,19.60
2018-06-09T04:21:49.637Z,17.35
2018-06-09T04:22:22.682Z,16.48
2018-06-09T04:22:55.716Z,15.88
2018-06-09T04:23:28.816Z,17.80
2018-06-09T04:24:01.849Z,18.85
2018-06-09T04:24:34.896Z,16.70
2018-06-09T04:25:07.936Z,17.77
2018-06-09T04:25:40.984Z,19.52
2018-06-09T04:26:14.035Z,17.35
2018-06-09T04:26:47.063Z,17.15
2018-06-09T04:27:20.101Z,17.17
2018-06-09T04:27:53.147Z,18.90
2018-06-09T04:28:26.239Z,18.98
2018-06-09T04:28:59.225Z,18.05
2018-06-09T04:29:32.256Z,18.42
2018-06-09T04:30:05.296Z,20.75
2018-06-09T04:30:38.339Z,18.70
2018-06-09T04:31:11.391Z,18.85
2018-06-09T04:31:44.441Z,19.55
2018-06-09T04:32:17.504Z,18.37
2018-06-09T04:32:50.545Z,17.65
2018-06-09T04:33:23.577Z,16.42
2018-06-09T04:33:56.645Z,16.25
2018-06-09T04:34:29.920Z,19.23
2018-06-09T04:35:02.917Z,18.92
2018-06-09T04:35:37.061Z,19.00
2018-06-09T04:36:10.112Z,19.45
2018-06-09T04:36:43.152Z,17.50
2018-06-09T04:37:16.192Z,17.55
2018-06-09T04:37:49.244Z,17.85
2018-06-09T04:38:22.282Z,20.50
2018-06-09T04:38:55.311Z,18.40
2018-06-09T04:39:28.368Z,17.50
2018-06-09T04:40:01.449Z,18.95
2018-06-09T04:40:35.227Z,19.27
2018-06-09T04:41:08.267Z,18.85
2018-06-09T04:41:41.318Z,17.23
2018-06-09T04:42:14.365Z,18.80
2018-06-09T04:42:47.424Z,17.62
2018-06-09T04:43:21.240Z,17.08
2018-06-09T04:43:54.275Z,18.52
2018-06-09T04:44:27.308Z,16.92
2018-06-09T04:45:00.352Z,17.30
2018-06-09T04:45:33.381Z,18.15
2018-06-09T04:46:06.475Z,18.90
2018-06-09T04:46:39.472Z,16.45
2018-06-09T04:47:12.517Z,16.70
2018-06-09T04:47:45.554Z,17.95
2018-06-09T04:48:18.588Z,18.40
2018-06-09T04:48:51.627Z,19.87
2018-06-09T04:49:24.672Z,19.35
2018-06-09T04:49:57.715Z,18.60
2018-06-09T04:50:30.762Z,17.87
2018-06-09T04:51:03.801Z,17.83
2018-06-09T04:51:36.869Z,18.40
2018-06-09T04:52:10.089Z,19.10
2018-06-09T04:52:43.076Z,19.45
2018-06-09T04:53:16.104Z,18.42
2018-06-09T04:53:49.144Z,19.92
2018-06-09T04:54:22.176Z,19.02
2018-06-09T04:54:55.207Z,20.15
2018-06-09T04:55:28.247Z,18.23
2018-06-09T04:56:02.057Z,18.45
2018-06-09T04:56:35.102Z,19.17
2018-06-09T04:57:08.139Z,18.85
2018-06-09T04:57:41.193Z,20.30
2018-06-09T04:58:14.232Z,18.58
2018-06-09T04:58:47.267Z,20.45
2018-06-09T04:59:20.364Z,18.58
2018-06-09T04:59:53.339Z,18.08
2018-06-09T05:00:26.377Z,18.73
2018-06-09T05:00:59.413Z,19.75
2018-06-09T05:01:33.213Z,18.95
2018-06-09T05:02:07.043Z,18.52
2018-06-09T05:02:40.072Z,18.25
2018-06-09T05:03:13.104Z,18.40
2018-06-09T05:03:46.904Z,17.12
2018-06-09T05:04:20.708Z,16.60
2018-06-09T05:04:53.757Z,18.00
2018-06-09T05:05:26.779Z,17.37
2018-06-09T05:05:59.820Z,18.10
2018-06-09T05:06:33.627Z,16.25
2018-06-09T05:07:06.676Z,17.20
2018-06-09T05:07:39.716Z,17.50
2018-06-09T05:08:12.759Z,18.15
2018-06-09T05:08:45.810Z,15.75
2018-06-09T05:09:18.851Z,19.98
2018-06-09T05:09:51.876Z,20.05
2018-06-09T05:10:24.920Z,16.70
2018-06-09T05:10:57.966Z,18.48
2018-06-09T05:11:31.012Z,18.95
2018-06-09T05:12:04.846Z,18.58
2018-06-09T05:12:37.895Z,18.80
2018-06-09T05:13:10.941Z,17.70
2018-06-09T05:13:43.977Z,18.70
2018-06-09T05:14:17.007Z,19.42
2018-06-09T05:14:50.804Z,19.25
2018-06-09T05:15:24.628Z,21.17
2018-06-09T05:15:57.672Z,20.60
2018-06-09T05:16:31.474Z,19.62
2018-06-09T05:17:05.287Z,18.85
2018-06-09T05:17:38.322Z,18.65
2018-06-09T05:18:11.360Z,18.05
2018-06-09T05:18:44.437Z,17.92
2018-06-09T05:19:17.500Z,18.20
2018-06-09T05:19:50.588Z,17.30
2018-06-09T05:20:23.628Z,19.95
2018-06-09T05:20:56.663Z,18.30
2018-06-09T05:21:29.716Z,19.60
2018-06-09T05:22:02.768Z,17.83
2018-06-09T05:22:35.809Z,18.05
2018-06-09T05:23:09.624Z,17.83
2018-06-09T05:23:42.668Z,18.50
2018-06-09T05:24:15.711Z,17.50
2018-06-09T05:24:48.756Z,20.45
2018-06-09T05:25:21.818Z,20.12
2018-06-09T05:25:54.855Z,18.60
2018-06-09T05:26:27.896Z,19.60
2018-06-09T05:27:00.957Z,18.55
2018-06-09T05:27:33.993Z,19.23
2018-06-09T05:28:07.843Z,18.77
2018-06-09T05:28:41.596Z,18.45
2018-06-09T05:29:14.649Z,20.02
2018-06-09T05:29:48.460Z,19.17
2018-06-09T05:30:21.581Z,19.73
2018-06-09T05:30:54.624Z,19.33
2018-06-09T05:31:27.656Z,16.92
2018-06-09T05:32:00.705Z,19.48
2018-06-09T05:32:33.789Z,20.58
2018-06-09T05:33:06.835Z,19.98
2018-06-09T05:33:39.880Z,20.05
2018-06-09T05:34:12.924Z,20.05
2018-06-09T05:34:45.985Z,19.48
2018-06-09T05:35:19.013Z,19.33
2018-06-09T05:35:52.052Z,18.08
2018-06-09T05:36:25.092Z,20.10
2018-06-09T05:36:58.145Z,18.83
2018-06-09T05:37:31.183Z,20.75
2018-06-09T05:38:04.988Z,19.67
2018-06-09T05:38:38.788Z,18.58
2018-06-09T05:39:12.600Z,20.17
2018-06-09T05:39:45.847Z,18.83
2018-06-09T05:40:19.653Z,18.23
2018-06-09T05:40:53.460Z,19.42
2018-06-09T05:41:26.489Z,20.23
2018-06-09T05:41:59.533Z,21.77
2018-06-09T05:42:32.581Z,20.98
2018-06-09T05:43:05.620Z,20.08
2018-06-09T05:43:38.660Z,19.92
2018-06-09T05:44:11.703Z,19.35
2018-06-09T05:44:44.744Z,20.05
2018-06-09T05:45:17.785Z,20.77
2018-06-09T05:45:50.816Z,19.48
2018-06-09T05:46:23.868Z,20.45
2018-06-09T05:46:56.911Z,21.17
2018-06-09T05:47:30.112Z,20.33
2018-06-09T05:48:03.154Z,19.35
2018-06-09T05:48:36.184Z,20.42
2018-06-09T05:49:10.008Z,18.35
2018-06-09T05:49:43.041Z,20.30
2018-06-09T05:50:16.079Z,20.00
2018-06-09T05:50:49.113Z,22.10
2018-06-09T05:51:22.912Z,18.37
2018-06-09T05:51:56.536Z,18.92
2018-06-09T05:52:29.601Z,21.00
2018-06-09T05:53:02.645Z,21.52
2018-06-09T05:53:36.433Z,19.95
2018-06-09T05:54:10.231Z,21.45
2018-06-09T05:54:43.274Z,21.08
2018-06-09T05:55:16.312Z,18.48
2018-06-09T05:55:49.368Z,20.27
2018-06-09T05:56:22.396Z,18.85
2018-06-09T05:56:55.448Z,19.35
2018-06-09T05:57:28.488Z,18.48
2018-06-09T05:58:01.696Z,17.23
2018-06-09T05:58:34.747Z,19.40
2018-06-09T05:59:07.778Z,19.33
2018-06-09T05:59:40.822Z,18.27
2018-06-09T06:00:13.885Z,19.58
2018-06-09T06:00:46.932Z,18.23
2018-06-09T06:01:19.975Z,18.85
2018-06-09T06:01:53.013Z,17.80
2018-06-09T06:02:26.071Z,17.48
2018-06-09T06:02:59.133Z,17.42
2018-06-09T06:03:32.268Z,17.62
2018-06-09T06:04:05.316Z,17.73
2018-06-09T06:04:38.344Z,18.77
2018-06-09T06:05:12.183Z,18.67
2018-06-09T06:05:45.211Z,18.08
2018-06-09T06:06:18.259Z,17.85
2018-06-09T06:06:51.307Z,16.62
2018-06-09T06:07:24.344Z,17.00
2018-06-09T06:07:57.391Z,16.60
2018-06-09T06:08:30.447Z,17.87
2018-06-09T06:09:03.485Z,17.52
2018-06-09T06:09:36.533Z,18.27
2018-06-09T06:10:09.577Z,17.90
2018-06-09T06:10:42.612Z,18.02
2018-06-09T06:11:15.672Z,17.27
2018-06-09T06:11:49.467Z,20.48
2018-06-09T06:12:23.280Z,21.02
2018-06-09T06:12:56.336Z,19.90
2018-06-09T06:13:29.376Z,19.98
2018-06-09T06:14:02.431Z,20.05
2018-06-09T06:14:35.464Z,19.65
2018-06-09T06:15:08.560Z,18.58
2018-06-09T06:15:41.667Z,19.00
2018-06-09T06:16:14.688Z,20.00
2018-06-09T06:16:47.734Z,19.35
2018-06-09T06:17:20.771Z,19.02
2018-06-09T06:17:53.807Z,18.55
2018-06-09T06:18:26.856Z,18.35
2018-06-09T06:18:59.884Z,20.55
2018-06-09T06:19:32.932Z,18.52
2018-06-09T06:20:06.745Z,18.55
2018-06-09T06:20:40.550Z,18.00
2018-06-09T06:21:13.596Z,18.12
2018-06-09T06:21:46.632Z,20.60
2018-06-09T06:22:19.672Z,19.52
2018-06-09T06:22:52.738Z,18.17
2018-06-09T06:23:25.813Z,18.70
2018-06-09T06:23:58.845Z,18.60
2018-06-09T06:24:31.883Z,19.62
2018-06-09T06:25:04.931Z,18.62
2018-06-09T06:25:37.959Z,21.27
2018-06-09T06:26:11.129Z,20.88
2018-06-09T06:26:44.485Z,18.90
2018-06-09T06:27:17.653Z,19.65
2018-06-09T06:27:50.861Z,20.88
2018-06-09T06:28:23.925Z,21.65
2018-06-09T06:28:56.968Z,19.87
2018-06-09T06:29:30.008Z,16.35
2018-06-09T06:30:03.064Z,17.55
2018-06-09T06:30:36.105Z,19.73
2018-06-09T06:31:09.162Z,19.02
2018-06-09T06:31:42.471Z,18.25
2018-06-09T06:32:15.955Z,17.27
2018-06-09T06:32:49.029Z,17.40
2018-06-09T06:33:22.853Z,17.90
2018-06-09T06:33:55.904Z,18.48
2018-06-09T06:34:28.944Z,18.55
2018-06-09T06:35:01.986Z,19.08
2018-06-09T06:35:35.029Z,18.55
2018-06-09T06:36:08.823Z,16.85
2018-06-09T06:36:41.869Z,18.42
2018-06-09T06:37:15.066Z,18.27
2018-06-09T06:37:48.104Z,17.05
2018-06-09T06:38:21.155Z,17.92
2018-06-09T06:38:54.189Z,18.02
2018-06-09T06:39:27.224Z,18.62
2018-06-09T06:40:00.269Z,18.87
2018-06-09T06:40:33.312Z,18.52
2018-06-09T06:41:06.363Z,18.87
2018-06-09T06:41:39.416Z,19.55
2018-06-09T06:42:12.435Z,17.58
2018-06-09T06:42:45.472Z,17.62
2018-06-09T06:43:18.552Z,17.12
2018-06-09T06:43:52.355Z,17.20
2018-06-09T06:44:26.172Z,16.35
2018-06-09T06:44:59.234Z,17.15
2018-06-09T06:45:33.040Z,16.58
2018-06-09T06:46:06.067Z,15.50
2018-06-09T06:46:39.876Z,16.52
2018-06-09T06:47:12.979Z,17.23
2018-06-09T06:47:45.956Z,19.73
2018-06-09T06:48:19.017Z,18.15
2018-06-09T06:48:52.195Z,19.67
2018-06-09T06:49:25.244Z,18.98
2018-06-09T06:49:59.042Z,16.87
2018-06-09T06:50:32.088Z,18.27
2018-06-09T06:51:05.139Z,19.30
2018-06-09T06:51:38.402Z,19.70
2018-06-09T06:52:11.436Z,20.85
2018-06-09T06:52:45.245Z,19.23
2018-06-09T06:53:18.313Z,17.90
2018-06-09T06:53:51.344Z,20.37
2018-06-09T06:54:24.379Z,18.05
2018-06-09T06:54:57.424Z,17.27
2018-06-09T06:55:30.463Z,18.77
2018-06-09T06:56:03.525Z,19.77
2018-06-09T06:56:36.575Z,18.73
2018-06-09T06:57:09.604Z,19.50
2018-06-09T06:57:42.651Z,20.33
2018-06-09T06:58:15.689Z,19.45
2018-06-09T06:58:48.718Z,19.25
2018-06-09T06:59:21.779Z,17.85
2018-06-09T06:59:54.824Z,16.42
2018-06-09T07:00:27.861Z,17.30
2018-06-09T07:01:00.907Z,15.57
2018-06-09T07:01:33.966Z,15.98
2018-06-09T07:02:07.048Z,15.90
2018-06-09T07:02:40.048Z,14.90
2018-06-09T07:03:13.084Z,15.50
2018-06-09T07:03:46.140Z,16.95
2018-06-09T07:04:19.188Z,16.08
2018-06-09T07:04:52.239Z,17.27
2018-06-09T07:05:25.275Z,17.27
2018-06-09T07:05:58.332Z,17.77
2018-06-09T07:06:32.137Z,17.83
2018-06-09T07:07:05.192Z,16.25
2018-06-09T07:07:38.995Z,17.42